Time;durP1;ratioP1;P1;durP2;ratioP2;P2;SDS_P1;SDS_P2;PMS_P1;PMS_P2;Temp;Humidity;BMP_temperature;BMP_pressure;BME280_temperature;BME280_humidity;BME280_pressure;Samples;Min_cycle;Max_cycle;Signal;HPM_P1;HPM_P2
2021/05/08 00:00:52;;;;;;;17.53;15.77;;;5.30;99.90;;;;;;5073962;28;20184;-70
2021/05/08 00:03:17;;;;;;;18.10;16.40;;;5.30;99.90;;;;;;5090716;28;20417;-70
2021/05/08 00:05:43;;;;;;;16.33;14.63;;;5.30;99.90;;;;;;5091407;28;20854;-69
2021/05/08 00:08:08;;;;;;;16.53;14.93;;;5.20;99.90;;;;;;5093402;28;20561;-70
2021/05/08 00:10:34;;;;;;;16.47;14.87;;;5.20;99.90;;;;;;5088109;28;20180;-69
2021/05/08 00:13:00;;;;;;;15.47;14.03;;;5.20;99.90;;;;;;5053773;28;20304;-69
2021/05/08 00:15:26;;;;;;;16.63;14.93;;;5.20;99.90;;;;;;5056906;28;20553;-69
2021/05/08 00:17:52;;;;;;;16.80;15.10;;;5.20;99.90;;;;;;5082864;28;20167;-70
2021/05/08 00:20:18;;;;;;;16.77;15.17;;;5.20;99.90;;;;;;5077846;28;20502;-69
2021/05/08 00:22:44;;;;;;;15.00;13.70;;;5.20;99.90;;;;;;5072863;28;20442;-69
2021/05/08 00:25:10;;;;;;;15.97;14.40;;;5.20;99.90;;;;;;5073394;28;20209;-69
2021/05/08 00:27:36;;;;;;;14.80;13.27;;;5.20;99.90;;;;;;5072791;28;20171;-70
2021/05/08 00:30:04;;;;;;;16.20;14.50;;;5.20;99.90;;;;;;5057166;28;20414;-70
2021/05/08 00:32:29;;;;;;;15.97;14.57;;;5.20;99.90;;;;;;5093644;28;20487;-70
2021/05/08 00:34:55;;;;;;;18.50;16.80;;;5.20;99.90;;;;;;5091490;28;20801;-70
2021/05/08 00:37:20;;;;;;;19.10;17.27;;;5.20;99.90;;;;;;5076616;28;20317;-70
2021/05/08 00:39:46;;;;;;;19.43;17.67;;;5.20;99.90;;;;;;5092793;28;20213;-69
2021/05/08 00:42:11;;;;;;;19.03;17.27;;;5.20;99.90;;;;;;5074652;28;20184;-70
2021/05/08 00:44:38;;;;;;;17.07;15.47;;;5.20;99.90;;;;;;5072706;28;20721;-69
2021/05/08 00:47:03;;;;;;;17.63;15.93;;;5.20;99.90;;;;;;5089013;28;20515;-70
2021/05/08 00:49:30;;;;;;;16.97;15.43;;;5.20;99.90;;;;;;5093065;28;20390;-69
2021/05/08 00:51:57;;;;;;;17.50;15.83;;;5.10;99.90;;;;;;5092495;28;20221;-69
2021/05/08 00:54:22;;;;;;;17.20;15.60;;;5.10;99.90;;;;;;5080498;28;20499;-69
2021/05/08 00:56:48;;;;;;;18.07;16.43;;;5.10;99.90;;;;;;5072633;28;20972;-69
2021/05/08 00:59:14;;;;;;;17.40;15.80;;;5.00;99.90;;;;;;5072620;28;20442;-69
2021/05/08 01:01:40;;;;;;;17.17;15.33;;;5.00;99.90;;;;;;5073587;28;20172;-70
2021/05/08 01:04:06;;;;;;;16.60;15.10;;;5.00;99.90;;;;;;5052503;28;20406;-70
2021/05/08 01:06:33;;;;;;;18.20;16.57;;;4.90;99.90;;;;;;5067357;28;20460;-70
2021/05/08 01:08:59;;;;;;;16.07;14.60;;;4.90;99.90;;;;;;5072485;28;20152;-69
2021/05/08 01:11:25;;;;;;;17.83;15.90;;;4.90;99.90;;;;;;5072462;28;20516;-69
2021/05/08 01:13:51;;;;;;;15.57;14.20;;;4.80;99.90;;;;;;5072423;28;20469;-69
2021/05/08 01:16:17;;;;;;;18.67;16.97;;;4.80;99.90;;;;;;5072618;28;20213;-70
2021/05/08 01:18:42;;;;;;;20.10;18.20;;;4.80;99.90;;;;;;5071840;28;20393;-70
2021/05/08 01:21:14;;;;;;;19.87;17.90;;;4.80;99.90;;;;;;5063017;28;20179;-70
2021/05/08 01:23:39;;;;;;;18.50;16.50;;;4.80;99.90;;;;;;5072411;28;20155;-70
2021/05/08 01:26:05;;;;;;;18.87;17.00;;;4.80;99.90;;;;;;5081590;28;20573;-69
2021/05/08 01:28:31;;;;;;;19.67;17.77;;;4.80;99.90;;;;;;5092374;28;20650;-69
2021/05/08 01:30:56;;;;;;;16.93;15.43;;;4.80;99.90;;;;;;5078102;28;20616;-70
2021/05/08 01:33:22;;;;;;;19.77;17.80;;;4.80;99.90;;;;;;5083930;28;20171;-70
2021/05/08 01:35:47;;;;;;;20.00;18.10;;;4.70;99.90;;;;;;5088151;28;20297;-69
2021/05/08 01:38:13;;;;;;;19.30;17.60;;;4.70;99.90;;;;;;5055963;28;20222;-70
2021/05/08 01:40:40;;;;;;;21.20;19.00;;;4.80;99.90;;;;;;5061506;28;20184;-70
2021/05/08 01:43:06;;;;;;;20.73;18.73;;;4.80;99.90;;;;;;5075743;28;20159;-70
2021/05/08 01:45:32;;;;;;;18.77;16.97;;;4.80;99.90;;;;;;5079782;28;20463;-70
2021/05/08 01:48:01;;;;;;;20.63;18.73;;;4.90;99.90;;;;;;5095758;28;20158;-70
2021/05/08 01:50:27;;;;;;;19.80;17.90;;;4.90;99.90;;;;;;5088211;28;20175;-70
2021/05/08 01:52:54;;;;;;;19.93;18.13;;;4.80;99.90;;;;;;5057071;28;20526;-70
2021/05/08 01:55:22;;;;;;;19.70;17.80;;;4.80;99.90;;;;;;5077662;28;20445;-69
2021/05/08 01:57:50;;;;;;;19.87;18.17;;;4.80;99.90;;;;;;5095521;28;20400;-70
2021/05/08 02:02:53;;;;;;;19.17;17.57;;;4.70;99.90;;;;;;5111394;27;21049;-68
2021/05/08 02:05:20;;;;;;;16.93;15.33;;;4.70;99.90;;;;;;5106581;28;20479;-68
2021/05/08 02:07:46;;;;;;;17.87;16.27;;;4.70;99.90;;;;;;5090538;28;20409;-68
2021/05/08 02:10:13;;;;;;;20.03;16.63;;;4.60;99.90;;;;;;5093776;28;20400;-68
2021/05/08 02:12:39;;;;;;;17.93;16.23;;;4.60;99.90;;;;;;5110924;28;20166;-68
2021/05/08 02:15:07;;;;;;;23.37;18.70;;;4.50;99.90;;;;;;5110089;28;20423;-68
2021/05/08 02:17:34;;;;;;;22.63;20.43;;;4.50;99.90;;;;;;5090259;28;20440;-68
2021/05/08 02:19:59;;;;;;;21.80;19.50;;;4.50;99.90;;;;;;5090336;28;20400;-68
2021/05/08 02:22:25;;;;;;;22.53;20.13;;;4.40;99.90;;;;;;5109771;28;20444;-68
2021/05/08 02:24:50;;;;;;;22.83;20.37;;;4.40;99.90;;;;;;5110406;28;20683;-68
2021/05/08 02:27:16;;;;;;;21.80;19.60;;;4.40;99.90;;;;;;5102453;28;20186;-68
2021/05/08 02:29:42;;;;;;;19.83;17.73;;;4.40;99.90;;;;;;5090077;28;20163;-68
2021/05/08 02:32:08;;;;;;;21.37;19.10;;;4.30;99.90;;;;;;5090192;28;20611;-68
2021/05/08 02:34:33;;;;;;;23.17;21.07;;;4.30;99.90;;;;;;5089875;28;20170;-68
2021/05/08 02:37:00;;;;;;;20.63;18.77;;;4.30;99.90;;;;;;5090522;28;20909;-68
2021/05/08 02:39:25;;;;;;;20.27;18.33;;;4.30;99.90;;;;;;5089706;28;20225;-68
2021/05/08 02:41:51;;;;;;;19.87;17.90;;;4.30;99.90;;;;;;5090627;28;20460;-68
2021/05/08 02:44:16;;;;;;;22.60;20.20;;;4.30;99.90;;;;;;5090612;28;20173;-68
2021/05/08 02:46:42;;;;;;;21.10;19.10;;;4.30;99.90;;;;;;5098271;28;20174;-68
2021/05/08 02:49:07;;;;;;;21.87;19.67;;;4.30;99.90;;;;;;5090512;28;20262;-68
2021/05/08 02:51:33;;;;;;;21.33;19.23;;;4.30;99.90;;;;;;5089889;28;20244;-68
2021/05/08 02:53:58;;;;;;;23.00;20.60;;;4.30;99.90;;;;;;5089564;28;20163;-68
2021/05/08 02:56:24;;;;;;;24.20;21.87;;;4.30;99.90;;;;;;5089792;28;20171;-68
2021/05/08 02:58:50;;;;;;;21.20;19.20;;;4.30;99.90;;;;;;5089375;28;20190;-68
2021/05/08 03:01:15;;;;;;;21.37;19.37;;;4.30;99.90;;;;;;5094356;28;20210;-68
2021/05/08 03:03:41;;;;;;;22.57;20.40;;;4.30;99.90;;;;;;5089395;28;20166;-68
2021/05/08 03:06:06;;;;;;;22.40;20.50;;;4.30;99.90;;;;;;5098381;28;20269;-68
2021/05/08 03:08:32;;;;;;;21.27;19.33;;;4.20;99.90;;;;;;5109648;28;20190;-68
2021/05/08 03:10:57;;;;;;;22.10;20.00;;;4.20;99.90;;;;;;5101013;28;20167;-68
2021/05/08 03:13:23;;;;;;;23.10;19.43;;;4.20;99.90;;;;;;5080481;28;20526;-68
2021/05/08 03:15:49;;;;;;;21.33;19.40;;;4.20;99.90;;;;;;5075676;28;20567;-68
2021/05/08 03:18:14;;;;;;;20.90;19.00;;;4.20;99.90;;;;;;5079756;28;20185;-68
2021/05/08 03:20:40;;;;;;;22.33;20.03;;;4.20;99.90;;;;;;5089713;28;20171;-68
2021/05/08 03:23:05;;;;;;;23.33;21.23;;;4.20;99.90;;;;;;5075450;28;20155;-68
2021/05/08 03:25:31;;;;;;;23.00;20.80;;;4.20;99.90;;;;;;5079236;28;20178;-68
2021/05/08 03:27:56;;;;;;;21.70;19.50;;;4.10;99.90;;;;;;5095768;28;20633;-68
2021/05/08 03:30:23;;;;;;;22.90;20.80;;;4.10;99.90;;;;;;5092281;28;20171;-68
2021/05/08 03:32:48;;;;;;;21.70;19.60;;;4.10;99.90;;;;;;5075245;28;20170;-68
2021/05/08 03:35:14;;;;;;;21.33;19.13;;;4.10;99.90;;;;;;5075733;28;20511;-68
2021/05/08 03:37:40;;;;;;;19.97;18.17;;;4.10;99.90;;;;;;5075196;28;20163;-68
2021/05/08 03:40:06;;;;;;;22.87;20.67;;;4.10;99.90;;;;;;5076100;28;20185;-68
2021/05/08 03:42:31;;;;;;;22.77;20.60;;;4.10;99.90;;;;;;5074921;28;20223;-68
2021/05/08 03:44:57;;;;;;;22.47;20.40;;;4.10;99.90;;;;;;5075288;28;20424;-68
2021/05/08 03:47:23;;;;;;;20.93;18.93;;;4.10;99.90;;;;;;5075029;28;20631;-68
2021/05/08 03:49:48;;;;;;;23.10;20.50;;;4.10;99.90;;;;;;5093884;28;20194;-68
2021/05/08 03:52:14;;;;;;;22.20;19.93;;;4.10;99.90;;;;;;5076848;28;20564;-68
2021/05/08 03:54:39;;;;;;;21.13;19.30;;;4.10;99.90;;;;;;5074844;28;20163;-68
2021/05/08 03:57:05;;;;;;;22.47;19.77;;;4.10;99.90;;;;;;5074958;28;20171;-68
2021/05/08 03:59:31;;;;;;;23.37;21.00;;;4.10;99.90;;;;;;5075275;28;20186;-68
2021/05/08 04:01:57;;;;;;;21.67;19.67;;;4.10;99.90;;;;;;5076017;28;20476;-68
2021/05/08 04:04:22;;;;;;;22.47;20.07;;;4.10;99.90;;;;;;5074532;28;20413;-68
2021/05/08 04:06:48;;;;;;;25.83;22.53;;;4.00;99.90;;;;;;5074839;28;20183;-68
2021/05/08 04:09:14;;;;;;;23.47;20.80;;;4.10;99.90;;;;;;5085937;28;20215;-68
2021/05/08 04:11:39;;;;;;;22.07;19.97;;;4.00;99.90;;;;;;5075117;28;20246;-68
2021/05/08 04:14:06;;;;;;;23.57;21.47;;;4.10;99.90;;;;;;5074990;28;20189;-68
2021/05/08 04:16:32;;;;;;;23.03;20.93;;;4.10;99.90;;;;;;5074359;28;20628;-68
2021/05/08 04:18:59;;;;;;;23.43;21.03;;;4.10;99.90;;;;;;5074280;28;20453;-68
2021/05/08 04:21:24;;;;;;;23.63;21.37;;;4.10;99.90;;;;;;5079587;28;20203;-68
2021/05/08 04:23:50;;;;;;;23.93;21.73;;;4.20;99.90;;;;;;5074292;28;20401;-68
2021/05/08 04:26:16;;;;;;;24.83;22.33;;;4.20;99.90;;;;;;5074553;28;20180;-68
2021/05/08 04:28:42;;;;;;;23.23;21.03;;;4.20;99.90;;;;;;5074556;28;20169;-68
2021/05/08 04:31:08;;;;;;;30.00;23.13;;;4.20;99.90;;;;;;5073994;28;20203;-68
2021/05/08 04:33:33;;;;;;;23.00;20.77;;;4.20;99.90;;;;;;5074131;28;20425;-68
2021/05/08 04:35:59;;;;;;;22.10;19.83;;;4.20;99.90;;;;;;5073805;28;20167;-68
2021/05/08 04:38:24;;;;;;;23.00;20.80;;;4.20;99.90;;;;;;5074307;28;20632;-68
2021/05/08 04:40:54;;;;;;;24.40;21.70;;;4.30;99.90;;;;;;5075005;28;20205;-68
2021/05/08 04:43:20;;;;;;;23.03;20.73;;;4.30;99.90;;;;;;5074592;28;20201;-68
2021/05/08 04:45:45;;;;;;;24.20;21.77;;;4.30;99.90;;;;;;5079688;28;20849;-68
2021/05/08 04:48:11;;;;;;;21.90;19.80;;;4.40;99.90;;;;;;5094114;28;20154;-68
2021/05/08 04:50:37;;;;;;;22.60;20.40;;;4.40;99.90;;;;;;5091873;28;20163;-68
2021/05/08 04:53:02;;;;;;;20.60;18.60;;;4.40;99.90;;;;;;5073653;28;20167;-68
2021/05/08 04:55:28;;;;;;;23.53;21.17;;;4.40;99.90;;;;;;5074089;28;20603;-68
2021/05/08 04:57:53;;;;;;;23.63;21.37;;;4.50;99.90;;;;;;5073618;28;20164;-68
2021/05/08 05:00:19;;;;;;;25.03;20.37;;;4.50;99.90;;;;;;5076237;28;20195;-68
2021/05/08 05:02:47;;;;;;;22.33;20.13;;;4.50;99.90;;;;;;5074306;28;20205;-68
2021/05/08 05:05:13;;;;;;;23.13;21.00;;;4.60;99.90;;;;;;5075828;28;20183;-68
2021/05/08 05:07:43;;;;;;;23.87;21.47;;;4.60;99.90;;;;;;5093997;28;20484;-68
2021/05/08 05:10:10;;;;;;;23.13;20.77;;;4.70;99.90;;;;;;5091982;28;20412;-68
2021/05/08 05:12:36;;;;;;;24.10;21.80;;;4.70;99.90;;;;;;5073618;28;20397;-68
2021/05/08 05:15:01;;;;;;;22.10;20.00;;;4.80;99.90;;;;;;5073268;28;20886;-68
2021/05/08 05:17:27;;;;;;;24.03;21.83;;;4.80;99.90;;;;;;5074007;28;20606;-68
2021/05/08 05:19:53;;;;;;;23.53;21.27;;;5.00;99.90;;;;;;5073329;28;20259;-68
2021/05/08 05:22:18;;;;;;;23.20;20.90;;;5.00;99.90;;;;;;5093528;28;20194;-68
2021/05/08 05:24:44;;;;;;;22.70;20.43;;;5.10;99.90;;;;;;5094298;28;20534;-68
2021/05/08 05:27:09;;;;;;;23.13;21.03;;;5.20;99.90;;;;;;5075344;28;20175;-68
2021/05/08 05:29:35;;;;;;;22.60;20.33;;;5.30;99.90;;;;;;5073302;28;20189;-68
2021/05/08 05:32:00;;;;;;;22.27;20.17;;;5.40;99.90;;;;;;5073082;28;20169;-68
2021/05/08 05:34:26;;;;;;;21.33;19.17;;;5.50;99.90;;;;;;5074318;28;20628;-68
2021/05/08 05:36:51;;;;;;;20.40;18.50;;;5.70;99.90;;;;;;5073682;28;20172;-68
2021/05/08 05:39:17;;;;;;;19.80;17.90;;;5.80;99.90;;;;;;5073969;28;20194;-68
2021/05/08 05:41:43;;;;;;;22.63;19.73;;;5.90;99.90;;;;;;5073989;28;20202;-68
2021/05/08 05:44:08;;;;;;;19.30;17.27;;;6.20;99.90;;;;;;5073160;28;20157;-68
2021/05/08 05:46:34;;;;;;;19.30;17.00;;;6.40;99.90;;;;;;5072934;28;20214;-68
2021/05/08 05:48:59;;;;;;;15.90;14.40;;;6.60;99.90;;;;;;5073025;28;20606;-68
2021/05/08 05:51:27;;;;;;;15.80;14.27;;;6.90;99.90;;;;;;5074147;28;20267;-68
2021/05/08 05:53:56;;;;;;;16.03;14.43;;;7.20;99.90;;;;;;5073961;28;20157;-68
2021/05/08 05:56:29;;;;;;;15.13;11.40;;;7.50;99.90;;;;;;5072903;28;20415;-68
2021/05/08 05:58:55;;;;;;;10.50;9.40;;;7.70;99.90;;;;;;5072820;28;20427;-68
2021/05/08 06:01:21;;;;;;;9.53;8.60;;;7.90;99.90;;;;;;5083374;28;20473;-68
2021/05/08 06:03:46;;;;;;;8.30;7.50;;;8.10;99.90;;;;;;5093113;28;20157;-68
2021/05/08 06:06:12;;;;;;;8.40;7.50;;;8.20;99.90;;;;;;5080932;28;20474;-68
2021/05/08 06:08:38;;;;;;;8.17;6.93;;;8.20;99.90;;;;;;5074036;28;20194;-68
2021/05/08 06:11:04;;;;;;;7.70;6.50;;;8.30;99.90;;;;;;5072748;28;20419;-68
2021/05/08 06:13:32;;;;;;;7.33;6.60;;;8.30;99.90;;;;;;5072848;28;20206;-68
2021/05/08 06:15:59;;;;;;;7.07;6.40;;;8.40;99.90;;;;;;5072582;28;20446;-68
2021/05/08 06:18:25;;;;;;;7.50;6.80;;;8.50;99.90;;;;;;5072900;28;20404;-68
2021/05/08 06:20:50;;;;;;;6.47;5.87;;;8.60;99.90;;;;;;5079294;28;20434;-68
2021/05/08 06:23:16;;;;;;;8.90;7.03;;;8.80;99.90;;;;;;5093499;28;20155;-68
2021/05/08 06:25:42;;;;;;;7.73;6.30;;;8.90;99.90;;;;;;5086668;28;20177;-68
2021/05/08 06:28:07;;;;;;;6.60;5.77;;;9.10;99.40;;;;;;5092535;28;20408;-68
2021/05/08 06:30:33;;;;;;;6.50;5.83;;;9.30;97.90;;;;;;5074444;28;20170;-68
2021/05/08 06:32:58;;;;;;;8.83;7.20;;;9.40;99.90;;;;;;5072901;28;20159;-68
2021/05/08 06:35:24;;;;;;;6.57;5.37;;;9.50;97.20;;;;;;5072444;28;20266;-68
2021/05/08 06:37:50;;;;;;;7.10;6.10;;;9.70;96.50;;;;;;5073141;28;20155;-68
2021/05/08 06:40:16;;;;;;;6.90;6.23;;;9.90;95.00;;;;;;5081450;28;20578;-68
2021/05/08 06:42:42;;;;;;;7.17;5.53;;;10.00;94.10;;;;;;5084093;28;20460;-68
2021/05/08 06:45:08;;;;;;;7.67;6.07;;;10.10;92.60;;;;;;5075246;28;20424;-68
2021/05/08 06:47:34;;;;;;;6.63;5.80;;;10.30;92.40;;;;;;5073998;28;20255;-68
2021/05/08 06:49:59;;;;;;;6.10;5.50;;;10.40;92.20;;;;;;5076351;28;20497;-68
2021/05/08 06:52:25;;;;;;;8.53;4.93;;;10.50;92.60;;;;;;5076772;28;20595;-68
2021/05/08 06:54:51;;;;;;;5.90;4.87;;;10.70;93.40;;;;;;5076150;28;20612;-68
2021/05/08 06:57:16;;;;;;;5.00;4.40;;;10.80;91.90;;;;;;5075844;28;20180;-68
2021/05/08 06:59:42;;;;;;;4.97;4.50;;;11.00;87.60;;;;;;5076690;28;20202;-68
2021/05/08 07:02:08;;;;;;;6.60;5.23;;;11.20;87.30;;;;;;5075696;28;20213;-68
2021/05/08 07:04:33;;;;;;;5.13;4.60;;;11.50;83.00;;;;;;5076257;28;20158;-68
2021/05/08 07:06:59;;;;;;;6.47;5.10;;;11.80;80.40;;;;;;5078956;28;20183;-68
2021/05/08 07:09:25;;;;;;;4.93;4.43;;;11.90;79.30;;;;;;5075919;28;20166;-68
2021/05/08 07:11:51;;;;;;;6.37;4.43;;;12.10;83.30;;;;;;5075714;28;20592;-68
2021/05/08 07:14:16;;;;;;;5.00;4.17;;;12.30;76.30;;;;;;5075761;28;20198;-68
2021/05/08 07:16:42;;;;;;;5.67;4.33;;;12.50;77.50;;;;;;5083979;28;20417;-68
2021/05/08 07:19:08;;;;;;;5.73;4.40;;;12.70;80.30;;;;;;5096053;28;20550;-68
2021/05/08 07:21:33;;;;;;;9.93;5.00;;;12.90;80.50;;;;;;5083397;28;20600;-68
2021/05/08 07:23:59;;;;;;;4.43;3.97;;;13.10;68.30;;;;;;5075681;28;20187;-68
2021/05/08 07:26:25;;;;;;;5.30;4.40;;;13.20;66.30;;;;;;5075443;28;20251;-68
2021/05/08 07:28:50;;;;;;;5.07;4.30;;;13.20;63.70;;;;;;5075741;28;20167;-68
2021/05/08 07:31:16;;;;;;;5.23;4.00;;;13.30;64.50;;;;;;5075410;28;20175;-68
2021/05/08 07:33:41;;;;;;;5.80;3.90;;;13.40;63.50;;;;;;5076195;28;20179;-68
2021/05/08 07:36:07;;;;;;;5.00;3.80;;;13.50;65.30;;;;;;5075589;28;20167;-68
2021/05/08 07:38:33;;;;;;;4.93;3.90;;;13.70;65.30;;;;;;5075308;28;20155;-68
2021/05/08 07:40:59;;;;;;;6.50;4.33;;;13.70;62.60;;;;;;5084940;28;20194;-68
2021/05/08 07:43:24;;;;;;;6.13;4.20;;;13.70;61.10;;;;;;5095542;28;20424;-68
2021/05/08 07:45:50;;;;;;;4.93;3.40;;;13.60;60.40;;;;;;5086670;28;20557;-68
2021/05/08 07:48:16;;;;;;;4.63;3.47;;;13.50;60.10;;;;;;5075338;28;20152;-68
2021/05/08 07:50:42;;;;;;;4.47;4.03;;;13.40;59.60;;;;;;5076039;28;20220;-68
2021/05/08 07:53:08;;;;;;;3.70;3.40;;;13.40;59.70;;;;;;5074948;28;20789;-68
2021/05/08 07:55:34;;;;;;;4.80;4.30;;;13.40;58.90;;;;;;5074968;28;20406;-68
2021/05/08 07:58:02;;;;;;;4.37;3.67;;;13.50;59.20;;;;;;5075154;28;20648;-68
2021/05/08 08:00:28;;;;;;;5.27;4.40;;;13.70;60.60;;;;;;5079409;28;20436;-68
2021/05/08 08:02:53;;;;;;;4.70;4.00;;;13.80;58.90;;;;;;5095253;28;20458;-68
2021/05/08 08:05:19;;;;;;;5.47;4.07;;;13.70;58.40;;;;;;5091418;28;20181;-68
2021/05/08 08:07:45;;;;;;;4.00;3.50;;;13.80;58.90;;;;;;5083629;28;20622;-68
2021/05/08 08:10:11;;;;;;;6.70;4.03;;;13.80;58.70;;;;;;5093312;28;20478;-68
2021/05/08 08:12:38;;;;;;;4.73;4.10;;;14.00;59.20;;;;;;5094506;28;20163;-68
2021/05/08 08:15:06;;;;;;;4.13;3.63;;;14.20;58.60;;;;;;5095108;28;20398;-68
2021/05/08 08:17:33;;;;;;;5.10;3.53;;;14.50;58.00;;;;;;5083493;28;20483;-68
2021/05/08 08:19:58;;;;;;;5.70;3.90;;;14.70;56.90;;;;;;5081043;28;20785;-68
2021/05/08 08:22:25;;;;;;;4.70;3.70;;;14.90;57.00;;;;;;5092999;28;20455;-68
2021/05/08 08:24:50;;;;;;;5.57;4.60;;;15.10;56.50;;;;;;5089131;28;20188;-68
2021/05/08 08:27:16;;;;;;;4.37;3.63;;;15.20;55.80;;;;;;5094636;28;20393;-68
2021/05/08 08:29:42;;;;;;;3.70;3.27;;;15.30;55.80;;;;;;5080318;28;20229;-69
2021/05/08 08:32:08;;;;;;;7.67;3.57;;;15.60;55.90;;;;;;5074774;28;20171;-68
2021/05/08 08:34:34;;;;;;;4.30;3.50;;;15.80;55.00;;;;;;5074505;28;20166;-68
2021/05/08 08:37:00;;;;;;;4.03;3.63;;;15.90;54.90;;;;;;5074087;28;20463;-68
2021/05/08 08:39:25;;;;;;;3.90;3.37;;;16.20;54.20;;;;;;5074471;28;20882;-68
2021/05/08 08:41:52;;;;;;;3.73;3.20;;;16.50;53.70;;;;;;5079787;28;20206;-66
2021/05/08 08:44:18;;;;;;;5.47;4.23;;;16.70;53.90;;;;;;5086217;28;20174;-66
2021/05/08 08:46:44;;;;;;;4.27;3.40;;;16.70;53.00;;;;;;5080253;28;20410;-68
2021/05/08 08:49:12;;;;;;;8.17;3.47;;;16.70;52.50;;;;;;5074077;28;20615;-68
2021/05/08 08:51:39;;;;;;;4.33;3.40;;;16.90;54.90;;;;;;5073529;28;20410;-66
2021/05/08 08:54:04;;;;;;;5.57;3.20;;;16.80;53.30;;;;;;5073983;28;20429;-68
2021/05/08 08:56:34;;;;;;;7.57;3.37;;;16.50;52.10;;;;;;5073750;28;20511;-68
2021/05/08 08:59:04;;;;;;;4.97;2.93;;;16.40;52.00;;;;;;5074122;28;20195;-68
2021/05/08 09:01:30;;;;;;;4.87;3.30;;;16.00;51.80;;;;;;5074799;28;20510;-68
2021/05/08 09:03:56;;;;;;;5.80;3.63;;;15.80;53.10;;;;;;5094009;28;20404;-68
2021/05/08 09:06:22;;;;;;;4.60;3.00;;;16.00;54.40;;;;;;5081362;28;20427;-68
2021/05/08 09:08:51;;;;;;;5.17;2.87;;;16.10;53.00;;;;;;5073782;28;20462;-68
2021/05/08 09:11:21;;;;;;;5.03;3.80;;;16.00;53.00;;;;;;5072884;28;20413;-68
2021/05/08 09:13:49;;;;;;;4.87;4.30;;;16.00;53.20;;;;;;5073607;28;20398;-68
2021/05/08 09:16:14;;;;;;;4.43;3.90;;;16.10;53.40;;;;;;5074357;28;20429;-68
2021/05/08 09:18:40;;;;;;;4.53;3.70;;;15.80;53.10;;;;;;5073609;28;20401;-68
2021/05/08 09:21:08;;;;;;;4.57;3.70;;;15.80;53.40;;;;;;5073396;28;20197;-68
2021/05/08 09:23:37;;;;;;;4.17;3.80;;;15.90;53.40;;;;;;5077840;28;20657;-68
2021/05/08 09:26:17;;;;;;;4.33;3.50;;;16.10;52.90;;;;;;5084915;28;20413;-68
2021/05/08 09:28:58;;;;;;;3.63;2.90;;;16.50;52.80;;;;;;5073340;28;20401;-68
2021/05/08 09:31:24;;;;;;;5.63;4.50;;;16.60;52.20;;;;;;5073513;28;20417;-69
2021/05/08 09:33:51;;;;;;;3.47;2.80;;;16.70;53.10;;;;;;5073698;28;20422;-68
2021/05/08 09:36:17;;;;;;;5.13;2.90;;;17.00;52.30;;;;;;5072962;28;20686;-68
2021/05/08 09:38:44;;;;;;;3.33;2.63;;;17.30;50.80;;;;;;5073165;28;20399;-68
2021/05/08 09:41:12;;;;;;;4.57;3.03;;;17.50;49.90;;;;;;5085133;28;20483;-68
2021/05/08 09:43:37;;;;;;;4.73;3.10;;;17.50;49.70;;;;;;5093412;28;20784;-68
2021/05/08 09:46:04;;;;;;;2.73;2.00;;;18.00;49.70;;;;;;5086901;28;20413;-69
2021/05/08 09:48:34;;;;;;;4.97;2.40;;;18.40;50.10;;;;;;5087447;28;20559;-66
2021/05/08 09:59:37;;;;;;;3.30;2.60;;;18.70;47.90;;;;;;5091003;27;20577;-67
2021/05/08 10:04:44;;;;;;;5.70;3.03;;;18.30;47.40;;;;;;5131420;27;20580;-66
2021/05/08 10:09:51;;;;;;;4.77;2.93;;;18.20;46.80;;;;;;5010037;28;20524;-68
2021/05/08 10:14:55;;;;;;;3.70;3.00;;;18.40;46.50;;;;;;5113903;27;20513;-67
2021/05/08 10:17:23;;;;;;;5.03;3.80;;;18.50;45.80;;;;;;5110582;28;20414;-67
2021/05/08 10:19:51;;;;;;;4.60;3.63;;;18.60;45.20;;;;;;5111081;28;20390;-67
2021/05/08 10:22:18;;;;;;;6.70;4.50;;;18.60;44.90;;;;;;5110741;28;20933;-67
2021/05/08 10:24:46;;;;;;;4.40;3.43;;;18.60;45.50;;;;;;5110410;28;20450;-67
2021/05/08 10:27:12;;;;;;;5.97;3.47;;;18.30;44.80;;;;;;5110263;28;20447;-68
2021/05/08 10:29:43;;;;;;;5.17;4.13;;;18.30;45.70;;;;;;5111097;28;20394;-68
2021/05/08 10:32:12;;;;;;;5.43;4.10;;;18.40;45.10;;;;;;5110404;28;20529;-67
2021/05/08 10:34:48;;;;;;;4.70;3.53;;;18.30;45.70;;;;;;5110455;28;20450;-67
2021/05/08 10:37:14;;;;;;;5.30;3.50;;;18.40;46.40;;;;;;5110046;28;20436;-67
2021/05/08 10:40:13;;;;;;;6.23;3.53;;;18.50;45.20;;;;;;5110115;28;20389;-67
2021/05/08 10:42:41;;;;;;;3.73;2.97;;;18.30;44.80;;;;;;5134937;27;20426;-68
2021/05/08 10:50:42;;;;;;;5.40;3.30;;;18.00;46.40;;;;;;5143847;27;21098;-68
2021/05/08 11:01:05;;;;;;;5.27;3.07;;;18.00;45.50;;;;;;5102423;27;20511;-68
2021/05/08 11:06:15;;;;;;;3.07;2.63;;;18.10;44.10;;;;;;5103536;27;21034;-68
2021/05/08 11:08:44;;;;;;;4.73;2.57;;;18.00;43.60;;;;;;5090561;28;20405;-68
2021/05/08 11:13:53;;;;;;;3.67;3.13;;;18.00;43.70;;;;;;5110444;27;20498;-68
2021/05/08 11:19:00;;;;;;;4.70;2.87;;;17.90;43.50;;;;;;5111016;27;20509;-67
2021/05/08 11:24:05;;;;;;;3.47;3.17;;;17.90;43.80;;;;;;5152185;27;20503;-68
2021/05/08 11:34:21;;;;;;;3.73;2.60;;;18.10;44.00;;;;;;5046883;27;20518;-66
2021/05/08 11:44:42;;;;;;;2.73;2.53;;;18.00;44.20;;;;;;5090620;28;20562;-68
2021/05/08 11:47:28;;;;;;;5.70;3.30;;;18.00;44.40;;;;;;5076073;28;20412;-68
2021/05/08 11:50:14;;;;;;;2.53;2.33;;;18.10;45.00;;;;;;5088775;28;20414;-68
2021/05/08 11:55:20;;;;;;;4.57;2.70;;;17.90;44.40;;;;;;5102955;27;20519;-68
2021/05/08 12:00:32;;;;;;;3.37;2.30;;;17.80;44.70;;;;;;5086501;27;20571;-68
2021/05/08 12:03:15;;;;;;;2.17;1.83;;;18.10;45.50;;;;;;5070409;28;20398;-68
2021/05/08 12:05:42;;;;;;;2.00;1.73;;;18.50;45.90;;;;;;5062749;28;20457;-68
2021/05/08 12:08:09;;;;;;;3.07;1.70;;;18.80;45.80;;;;;;5050419;28;20389;-68
2021/05/08 12:10:37;;;;;;;3.10;2.20;;;19.10;45.90;;;;;;5055612;28;20397;-68
2021/05/08 12:13:03;;;;;;;2.90;2.37;;;18.90;46.40;;;;;;5070210;28;20841;-68
2021/05/08 12:23:22;;;;;;;5.60;2.30;;;17.80;47.90;;;;;;5097608;27;20560;-68
2021/05/08 12:26:09;;;;;;;3.83;3.43;;;17.40;50.70;;;;;;5088420;28;20557;-68
2021/05/08 12:28:38;;;;;;;3.77;2.57;;;17.30;52.80;;;;;;5069345;28;20469;-68
2021/05/08 12:31:28;;;;;;;2.97;2.67;;;17.10;54.90;;;;;;5070688;28;20457;-68
2021/05/08 12:33:57;;;;;;;4.07;3.13;;;17.00;54.40;;;;;;5069194;28;20432;-68
2021/05/08 12:36:24;;;;;;;2.33;2.13;;;16.70;54.60;;;;;;5070942;28;20890;-68
2021/05/08 12:38:52;;;;;;;3.27;3.00;;;16.30;54.30;;;;;;5072795;28;20735;-68
2021/05/08 12:41:35;;;;;;;2.80;2.60;;;16.30;55.20;;;;;;5088688;28;20459;-68
2021/05/08 12:44:09;;;;;;;2.33;2.13;;;16.30;57.20;;;;;;5090309;28;20434;-68
2021/05/08 12:46:56;;;;;;;3.13;2.70;;;16.50;63.80;;;;;;5075802;28;20429;-68
2021/05/08 12:49:23;;;;;;;2.67;2.47;;;16.70;65.50;;;;;;5070328;28;20398;-68
2021/05/08 12:51:49;;;;;;;4.07;2.63;;;16.70;65.80;;;;;;5070320;28;20472;-68
2021/05/08 12:57:14;;;;;;;4.63;3.40;;;16.70;66.60;;;;;;5093940;27;20518;-68
2021/05/08 12:59:40;;;;;;;7.87;4.27;;;16.70;73.90;;;;;;5090714;28;20421;-68
2021/05/08 13:02:15;;;;;;;5.07;2.70;;;16.70;73.70;;;;;;5090307;28;20962;-68
2021/05/08 13:04:42;;;;;;;2.43;2.20;;;16.60;73.40;;;;;;5091027;28;20776;-68
2021/05/08 13:07:32;;;;;;;3.50;2.63;;;16.30;74.10;;;;;;5090801;28;20397;-68
2021/05/08 13:15:37;;;;;;;3.07;2.77;;;16.20;75.30;;;;;;5086497;28;20849;-68
2021/05/08 13:18:04;;;;;;;2.10;1.90;;;15.60;80.60;;;;;;5070822;28;20391;-68
2021/05/08 13:20:32;;;;;;;2.63;2.43;;;15.50;85.90;;;;;;5070331;28;20399;-68
2021/05/08 13:22:59;;;;;;;4.70;4.20;;;15.40;87.50;;;;;;5070566;28;20384;-68
2021/05/08 13:25:25;;;;;;;4.47;3.80;;;15.30;86.40;;;;;;5070033;28;20416;-68
2021/05/08 13:27:50;;;;;;;3.47;3.17;;;15.20;90.90;;;;;;5070109;28;20384;-68
2021/05/08 13:30:18;;;;;;;4.80;2.17;;;15.20;92.00;;;;;;5069588;28;20838;-68
2021/05/08 13:32:53;;;;;;;2.57;2.37;;;15.20;92.60;;;;;;5070194;28;20207;-68
2021/05/08 13:35:21;;;;;;;3.53;2.20;;;15.20;93.00;;;;;;5069890;28;20455;-68
2021/05/08 13:37:47;;;;;;;3.73;2.67;;;15.20;91.40;;;;;;5070361;28;20413;-68
2021/05/08 13:40:15;;;;;;;4.50;3.13;;;15.30;94.80;;;;;;5069612;28;20411;-68
2021/05/08 13:42:41;;;;;;;4.37;2.37;;;15.30;92.90;;;;;;5069986;28;20881;-68
2021/05/08 13:45:07;;;;;;;2.53;2.33;;;15.30;96.10;;;;;;5069567;28;20419;-68
2021/05/08 13:47:33;;;;;;;3.77;2.33;;;15.40;95.30;;;;;;5070207;28;20476;-68
2021/05/08 13:49:58;;;;;;;2.80;2.57;;;15.40;93.40;;;;;;5069596;28;20461;-68
2021/05/08 13:52:26;;;;;;;5.10;4.63;;;15.40;92.50;;;;;;5069737;28;20173;-68
2021/05/08 13:54:53;;;;;;;4.60;4.10;;;15.50;92.10;;;;;;5069599;28;20231;-68
2021/05/08 13:57:18;;;;;;;3.40;2.07;;;15.60;92.60;;;;;;5069295;28;20412;-68
2021/05/08 13:59:45;;;;;;;2.40;2.20;;;15.60;88.40;;;;;;5068735;28;20948;-68
2021/05/08 14:02:11;;;;;;;3.50;2.40;;;15.70;88.60;;;;;;5051479;28;20214;-68